sensor_id;sensor_type;location;lat;lon;timestamp;P1;durP1;ratioP1;P2;durP2;ratioP2
8230;SDS011;4156;50.908;6.974;2022-12-29T00:01:49;1.30;;;1.20;;
8230;SDS011;4156;50.908;6.974;2022-12-29T00:04:14;1.30;;;1.20;;
8230;SDS011;4156;50.908;6.974;2022-12-29T00:06:40;1.00;;;1.00;;
8230;SDS011;4156;50.908;6.974;2022-12-29T00:09:07;1.23;;;1.10;;
8230;SDS011;4156;50.908;6.974;2022-12-29T00:11:32;1.20;;;1.10;;
8230;SDS011;4156;50.908;6.974;2022-12-29T00:13:58;1.47;;;1.10;;
8230;SDS011;4156;50.908;6.974;2022-12-29T00:16:43;0.90;;;0.90;;
8230;SDS011;4156;50.908;6.974;2022-12-29T00:19:10;0.80;;;0.80;;
8230;SDS011;4156;50.908;6.974;2022-12-29T00:21:55;1.00;;;1.00;;
8230;SDS011;4156;50.908;6.974;2022-12-29T00:24:39;0.90;;;0.90;;
8230;SDS011;4156;50.908;6.974;2022-12-29T00:27:23;0.93;;;0.93;;
8230;SDS011;4156;50.908;6.974;2022-12-29T00:30:09;0.80;;;0.80;;
8230;SDS011;4156;50.908;6.974;2022-12-29T00:32:55;0.93;;;0.93;;
8230;SDS011;4156;50.908;6.974;2022-12-29T00:35:39;0.80;;;0.80;;
8230;SDS011;4156;50.908;6.974;2022-12-29T00:38:18;0.93;;;0.93;;
8230;SDS011;4156;50.908;6.974;2022-12-29T00:41:03;1.07;;;1.00;;
8230;SDS011;4156;50.908;6.974;2022-12-29T00:43:47;1.27;;;0.80;;
8230;SDS011;4156;50.908;6.974;2022-12-29T00:46:34;0.90;;;0.90;;
8230;SDS011;4156;50.908;6.974;2022-12-29T00:49:04;0.90;;;0.90;;
8230;SDS011;4156;50.908;6.974;2022-12-29T00:51:49;0.70;;;0.70;;
8230;SDS011;4156;50.908;6.974;2022-12-29T00:54:15;0.80;;;0.80;;
8230;SDS011;4156;50.908;6.974;2022-12-29T00:56:41;0.77;;;0.77;;
8230;SDS011;4156;50.908;6.974;2022-12-29T00:59:08;0.80;;;0.80;;
8230;SDS011;4156;50.908;6.974;2022-12-29T01:01:35;0.80;;;0.80;;
8230;SDS011;4156;50.908;6.974;2022-12-29T01:04:01;0.70;;;0.70;;
8230;SDS011;4156;50.908;6.974;2022-12-29T01:06:27;0.63;;;0.63;;
8230;SDS011;4156;50.908;6.974;2022-12-29T01:08:53;1.23;;;1.13;;
8230;SDS011;4156;50.908;6.974;2022-12-29T01:11:37;0.73;;;0.73;;
8230;SDS011;4156;50.908;6.974;2022-12-29T01:14:04;0.70;;;0.70;;
8230;SDS011;4156;50.908;6.974;2022-12-29T01:16:30;0.70;;;0.70;;
8230;SDS011;4156;50.908;6.974;2022-12-29T01:18:55;0.80;;;0.80;;
8230;SDS011;4156;50.908;6.974;2022-12-29T01:21:21;1.70;;;0.97;;
8230;SDS011;4156;50.908;6.974;2022-12-29T01:23:46;0.60;;;0.60;;
8230;SDS011;4156;50.908;6.974;2022-12-29T01:26:13;0.70;;;0.70;;
8230;SDS011;4156;50.908;6.974;2022-12-29T01:28:40;0.80;;;0.80;;
8230;SDS011;4156;50.908;6.974;2022-12-29T01:31:10;0.70;;;0.70;;
8230;SDS011;4156;50.908;6.974;2022-12-29T01:33:37;0.60;;;0.60;;
8230;SDS011;4156;50.908;6.974;2022-12-29T01:36:12;0.90;;;0.90;;
8230;SDS011;4156;50.908;6.974;2022-12-29T01:38:39;2.13;;;0.60;;
8230;SDS011;4156;50.908;6.974;2022-12-29T01:41:06;0.80;;;0.80;;
8230;SDS011;4156;50.908;6.974;2022-12-29T01:43:40;0.70;;;0.70;;
8230;SDS011;4156;50.908;6.974;2022-12-29T01:46:11;0.70;;;0.70;;
8230;SDS011;4156;50.908;6.974;2022-12-29T01:48:52;1.23;;;0.97;;
8230;SDS011;4156;50.908;6.974;2022-12-29T01:51:23;0.70;;;0.70;;
8230;SDS011;4156;50.908;6.974;2022-12-29T01:53:51;1.60;;;1.00;;
8230;SDS011;4156;50.908;6.974;2022-12-29T01:56:18;0.80;;;0.70;;
8230;SDS011;4156;50.908;6.974;2022-12-29T01:58:46;0.70;;;0.70;;
8230;SDS011;4156;50.908;6.974;2022-12-29T02:01:16;1.00;;;0.90;;
8230;SDS011;4156;50.908;6.974;2022-12-29T02:03:44;1.03;;;0.80;;
8230;SDS011;4156;50.908;6.974;2022-12-29T02:06:11;0.90;;;0.90;;
8230;SDS011;4156;50.908;6.974;2022-12-29T02:08:46;0.80;;;0.80;;
8230;SDS011;4156;50.908;6.974;2022-12-29T02:11:14;1.23;;;1.07;;
8230;SDS011;4156;50.908;6.974;2022-12-29T02:13:41;2.17;;;0.90;;
8230;SDS011;4156;50.908;6.974;2022-12-29T02:16:23;1.00;;;0.90;;
8230;SDS011;4156;50.908;6.974;2022-12-29T02:19:32;0.97;;;0.97;;
8230;SDS011;4156;50.908;6.974;2022-12-29T02:22:11;1.17;;;1.10;;
8230;SDS011;4156;50.908;6.974;2022-12-29T02:35:48;0.90;;;0.90;;
8230;SDS011;4156;50.908;6.974;2022-12-29T02:41:19;0.80;;;0.80;;
8230;SDS011;4156;50.908;6.974;2022-12-29T02:44:02;0.80;;;0.80;;
8230;SDS011;4156;50.908;6.974;2022-12-29T02:46:41;1.10;;;1.00;;
8230;SDS011;4156;50.908;6.974;2022-12-29T02:49:25;1.03;;;0.90;;
8230;SDS011;4156;50.908;6.974;2022-12-29T02:52:10;2.27;;;1.10;;
8230;SDS011;4156;50.908;6.974;2022-12-29T02:54:47;0.97;;;0.90;;
8230;SDS011;4156;50.908;6.974;2022-12-29T02:59:53;1.17;;;1.07;;
8230;SDS011;4156;50.908;6.974;2022-12-29T03:05:57;1.33;;;1.07;;
8230;SDS011;4156;50.908;6.974;2022-12-29T03:13:29;0.90;;;0.90;;
8230;SDS011;4156;50.908;6.974;2022-12-29T03:16:23;1.17;;;0.90;;
8230;SDS011;4156;50.908;6.974;2022-12-29T03:18:57;0.90;;;0.90;;
8230;SDS011;4156;50.908;6.974;2022-12-29T03:21:32;0.87;;;0.80;;
8230;SDS011;4156;50.908;6.974;2022-12-29T03:24:22;1.13;;;1.03;;
8230;SDS011;4156;50.908;6.974;2022-12-29T03:26:52;0.90;;;0.90;;
8230;SDS011;4156;50.908;6.974;2022-12-29T03:29:21;0.87;;;0.83;;
8230;SDS011;4156;50.908;6.974;2022-12-29T03:31:47;1.03;;;0.93;;
8230;SDS011;4156;50.908;6.974;2022-12-29T03:34:15;0.80;;;0.80;;
8230;SDS011;4156;50.908;6.974;2022-12-29T03:36:44;1.10;;;0.70;;
8230;SDS011;4156;50.908;6.974;2022-12-29T03:39:15;0.80;;;0.80;;
8230;SDS011;4156;50.908;6.974;2022-12-29T03:41:45;0.80;;;0.80;;
8230;SDS011;4156;50.908;6.974;2022-12-29T03:44:12;0.80;;;0.80;;
8230;SDS011;4156;50.908;6.974;2022-12-29T03:46:38;0.97;;;0.90;;
8230;SDS011;4156;50.908;6.974;2022-12-29T03:49:04;2.10;;;1.00;;
8230;SDS011;4156;50.908;6.974;2022-12-29T03:51:29;0.77;;;0.70;;
8230;SDS011;4156;50.908;6.974;2022-12-29T03:53:55;1.87;;;1.70;;
8230;SDS011;4156;50.908;6.974;2022-12-29T03:56:20;0.90;;;0.90;;
8230;SDS011;4156;50.908;6.974;2022-12-29T03:58:46;0.83;;;0.83;;
8230;SDS011;4156;50.908;6.974;2022-12-29T04:01:11;0.90;;;0.90;;
8230;SDS011;4156;50.908;6.974;2022-12-29T04:03:37;1.17;;;1.00;;
8230;SDS011;4156;50.908;6.974;2022-12-29T04:06:03;0.80;;;0.80;;
8230;SDS011;4156;50.908;6.974;2022-12-29T04:08:28;1.33;;;1.10;;
8230;SDS011;4156;50.908;6.974;2022-12-29T04:10:54;0.83;;;0.83;;
8230;SDS011;4156;50.908;6.974;2022-12-29T04:13:19;1.00;;;1.00;;
8230;SDS011;4156;50.908;6.974;2022-12-29T04:15:45;1.20;;;1.10;;
8230;SDS011;4156;50.908;6.974;2022-12-29T04:18:11;0.90;;;0.90;;
8230;SDS011;4156;50.908;6.974;2022-12-29T04:20:37;0.93;;;0.73;;
8230;SDS011;4156;50.908;6.974;2022-12-29T04:23:22;1.70;;;0.87;;
8230;SDS011;4156;50.908;6.974;2022-12-29T04:25:47;0.80;;;0.80;;
8230;SDS011;4156;50.908;6.974;2022-12-29T04:28:13;0.87;;;0.87;;
8230;SDS011;4156;50.908;6.974;2022-12-29T04:30:39;1.00;;;0.90;;
8230;SDS011;4156;50.908;6.974;2022-12-29T04:33:05;1.13;;;1.03;;
8230;SDS011;4156;50.908;6.974;2022-12-29T04:35:31;0.80;;;0.80;;
8230;SDS011;4156;50.908;6.974;2022-12-29T04:37:57;0.80;;;0.80;;
8230;SDS011;4156;50.908;6.974;2022-12-29T04:40:22;1.13;;;1.03;;
8230;SDS011;4156;50.908;6.974;2022-12-29T04:42:48;1.17;;;1.00;;
8230;SDS011;4156;50.908;6.974;2022-12-29T04:45:14;0.90;;;0.90;;
8230;SDS011;4156;50.908;6.974;2022-12-29T04:47:40;0.90;;;0.90;;
8230;SDS011;4156;50.908;6.974;2022-12-29T04:50:05;1.37;;;1.00;;
8230;SDS011;4156;50.908;6.974;2022-12-29T04:52:31;0.97;;;0.97;;
8230;SDS011;4156;50.908;6.974;2022-12-29T04:54:57;0.93;;;0.90;;
8230;SDS011;4156;50.908;6.974;2022-12-29T04:57:22;0.80;;;0.80;;
8230;SDS011;4156;50.908;6.974;2022-12-29T04:59:48;0.90;;;0.90;;
8230;SDS011;4156;50.908;6.974;2022-12-29T05:02:15;1.03;;;0.90;;
8230;SDS011;4156;50.908;6.974;2022-12-29T05:04:41;0.97;;;0.90;;
8230;SDS011;4156;50.908;6.974;2022-12-29T05:07:06;1.40;;;1.00;;
8230;SDS011;4156;50.908;6.974;2022-12-29T05:09:32;2.80;;;1.27;;
8230;SDS011;4156;50.908;6.974;2022-12-29T05:11:57;1.10;;;1.00;;
8230;SDS011;4156;50.908;6.974;2022-12-29T05:14:23;1.07;;;0.90;;
8230;SDS011;4156;50.908;6.974;2022-12-29T05:16:48;1.00;;;0.90;;
8230;SDS011;4156;50.908;6.974;2022-12-29T05:19:14;1.70;;;1.10;;
8230;SDS011;4156;50.908;6.974;2022-12-29T05:21:39;0.87;;;0.87;;
8230;SDS011;4156;50.908;6.974;2022-12-29T05:24:05;1.93;;;0.90;;
8230;SDS011;4156;50.908;6.974;2022-12-29T05:26:31;1.30;;;1.10;;
8230;SDS011;4156;50.908;6.974;2022-12-29T05:28:56;0.90;;;0.90;;
8230;SDS011;4156;50.908;6.974;2022-12-29T05:31:21;1.23;;;0.90;;
8230;SDS011;4156;50.908;6.974;2022-12-29T05:33:47;2.47;;;1.20;;
8230;SDS011;4156;50.908;6.974;2022-12-29T05:36:12;0.80;;;0.80;;
8230;SDS011;4156;50.908;6.974;2022-12-29T05:38:38;1.30;;;1.20;;
8230;SDS011;4156;50.908;6.974;2022-12-29T05:41:03;1.73;;;1.23;;
8230;SDS011;4156;50.908;6.974;2022-12-29T05:43:29;0.70;;;0.70;;
8230;SDS011;4156;50.908;6.974;2022-12-29T05:45:55;1.40;;;1.10;;
8230;SDS011;4156;50.908;6.974;2022-12-29T05:48:21;0.80;;;0.80;;
8230;SDS011;4156;50.908;6.974;2022-12-29T05:50:47;0.97;;;0.97;;
8230;SDS011;4156;50.908;6.974;2022-12-29T05:53:14;1.00;;;0.70;;
8230;SDS011;4156;50.908;6.974;2022-12-29T05:55:40;1.10;;;1.00;;
8230;SDS011;4156;50.908;6.974;2022-12-29T05:58:05;0.90;;;0.90;;
8230;SDS011;4156;50.908;6.974;2022-12-29T06:00:31;0.90;;;0.90;;
8230;SDS011;4156;50.908;6.974;2022-12-29T06:02:56;1.27;;;1.00;;
8230;SDS011;4156;50.908;6.974;2022-12-29T06:05:22;0.70;;;0.70;;
8230;SDS011;4156;50.908;6.974;2022-12-29T06:07:47;0.80;;;0.80;;
8230;SDS011;4156;50.908;6.974;2022-12-29T06:10:13;0.70;;;0.70;;
8230;SDS011;4156;50.908;6.974;2022-12-29T06:12:39;0.90;;;0.90;;
8230;SDS011;4156;50.908;6.974;2022-12-29T06:15:04;0.80;;;0.80;;
8230;SDS011;4156;50.908;6.974;2022-12-29T06:17:30;1.20;;;1.10;;
8230;SDS011;4156;50.908;6.974;2022-12-29T06:19:56;0.80;;;0.80;;
8230;SDS011;4156;50.908;6.974;2022-12-29T06:22:21;0.87;;;0.87;;
8230;SDS011;4156;50.908;6.974;2022-12-29T06:24:47;1.03;;;0.93;;
8230;SDS011;4156;50.908;6.974;2022-12-29T06:27:12;1.27;;;0.80;;
8230;SDS011;4156;50.908;6.974;2022-12-29T06:29:38;0.80;;;0.80;;
8230;SDS011;4156;50.908;6.974;2022-12-29T06:32:05;0.70;;;0.70;;
8230;SDS011;4156;50.908;6.974;2022-12-29T06:34:31;0.60;;;0.60;;
8230;SDS011;4156;50.908;6.974;2022-12-29T06:36:57;1.00;;;0.80;;
8230;SDS011;4156;50.908;6.974;2022-12-29T06:39:22;1.00;;;1.00;;
8230;SDS011;4156;50.908;6.974;2022-12-29T06:41:48;1.00;;;1.00;;
8230;SDS011;4156;50.908;6.974;2022-12-29T06:44:17;0.80;;;0.80;;
8230;SDS011;4156;50.908;6.974;2022-12-29T06:46:42;0.80;;;0.80;;
8230;SDS011;4156;50.908;6.974;2022-12-29T06:49:08;1.00;;;0.90;;
8230;SDS011;4156;50.908;6.974;2022-12-29T06:51:33;2.87;;;0.90;;
8230;SDS011;4156;50.908;6.974;2022-12-29T06:53:59;1.17;;;0.70;;
8230;SDS011;4156;50.908;6.974;2022-12-29T06:56:24;0.80;;;0.80;;
8230;SDS011;4156;50.908;6.974;2022-12-29T06:58:50;0.67;;;0.67;;
8230;SDS011;4156;50.908;6.974;2022-12-29T07:01:15;2.00;;;1.03;;
8230;SDS011;4156;50.908;6.974;2022-12-29T07:03:41;0.80;;;0.80;;
8230;SDS011;4156;50.908;6.974;2022-12-29T07:06:07;0.83;;;0.83;;
8230;SDS011;4156;50.908;6.974;2022-12-29T07:08:33;2.00;;;0.70;;
8230;SDS011;4156;50.908;6.974;2022-12-29T07:10:58;0.90;;;0.90;;
8230;SDS011;4156;50.908;6.974;2022-12-29T07:13:24;1.10;;;1.00;;
8230;SDS011;4156;50.908;6.974;2022-12-29T07:15:49;1.20;;;1.00;;
8230;SDS011;4156;50.908;6.974;2022-12-29T07:18:15;1.17;;;0.90;;
8230;SDS011;4156;50.908;6.974;2022-12-29T07:20:40;1.10;;;1.00;;
8230;SDS011;4156;50.908;6.974;2022-12-29T07:23:06;0.87;;;0.87;;
8230;SDS011;4156;50.908;6.974;2022-12-29T07:25:32;1.20;;;1.10;;
8230;SDS011;4156;50.908;6.974;2022-12-29T07:27:59;1.17;;;1.00;;
8230;SDS011;4156;50.908;6.974;2022-12-29T07:30:25;1.67;;;1.03;;
8230;SDS011;4156;50.908;6.974;2022-12-29T07:32:50;1.63;;;1.30;;
8230;SDS011;4156;50.908;6.974;2022-12-29T07:35:16;1.87;;;1.10;;
8230;SDS011;4156;50.908;6.974;2022-12-29T07:37:41;1.57;;;1.20;;
8230;SDS011;4156;50.908;6.974;2022-12-29T07:40:08;1.40;;;1.00;;
8230;SDS011;4156;50.908;6.974;2022-12-29T07:42:34;1.60;;;1.33;;
8230;SDS011;4156;50.908;6.974;2022-12-29T07:45:00;1.10;;;1.00;;
8230;SDS011;4156;50.908;6.974;2022-12-29T07:47:26;1.30;;;1.00;;
8230;SDS011;4156;50.908;6.974;2022-12-29T07:49:52;2.67;;;1.17;;
8230;SDS011;4156;50.908;6.974;2022-12-29T07:52:17;1.97;;;1.10;;
8230;SDS011;4156;50.908;6.974;2022-12-29T07:54:43;2.17;;;0.90;;
8230;SDS011;4156;50.908;6.974;2022-12-29T07:57:08;2.10;;;1.20;;
8230;SDS011;4156;50.908;6.974;2022-12-29T07:59:34;1.27;;;1.10;;
8230;SDS011;4156;50.908;6.974;2022-12-29T08:01:59;0.90;;;0.90;;
8230;SDS011;4156;50.908;6.974;2022-12-29T08:04:25;1.70;;;1.20;;
8230;SDS011;4156;50.908;6.974;2022-12-29T08:06:51;3.23;;;1.37;;
8230;SDS011;4156;50.908;6.974;2022-12-29T08:09:16;2.03;;;1.20;;
8230;SDS011;4156;50.908;6.974;2022-12-29T08:11:42;2.03;;;1.53;;
8230;SDS011;4156;50.908;6.974;2022-12-29T08:14:08;2.50;;;1.60;;
8230;SDS011;4156;50.908;6.974;2022-12-29T08:16:34;2.27;;;1.40;;
8230;SDS011;4156;50.908;6.974;2022-12-29T08:19:00;2.23;;;1.13;;
8230;SDS011;4156;50.908;6.974;2022-12-29T08:21:29;5.37;;;1.90;;
8230;SDS011;4156;50.908;6.974;2022-12-29T08:23:55;3.43;;;1.50;;
8230;SDS011;4156;50.908;6.974;2022-12-29T08:26:21;3.13;;;1.30;;
8230;SDS011;4156;50.908;6.974;2022-12-29T08:28:46;2.80;;;1.30;;
8230;SDS011;4156;50.908;6.974;2022-12-29T08:31:12;3.43;;;1.80;;
8230;SDS011;4156;50.908;6.974;2022-12-29T08:33:37;3.03;;;1.40;;
8230;SDS011;4156;50.908;6.974;2022-12-29T08:36:04;1.83;;;1.30;;
8230;SDS011;4156;50.908;6.974;2022-12-29T08:38:31;3.13;;;1.57;;
8230;SDS011;4156;50.908;6.974;2022-12-29T08:40:57;3.17;;;1.60;;
8230;SDS011;4156;50.908;6.974;2022-12-29T08:43:26;4.50;;;2.03;;
8230;SDS011;4156;50.908;6.974;2022-12-29T08:45:52;3.20;;;1.30;;
8230;SDS011;4156;50.908;6.974;2022-12-29T08:48:17;2.93;;;1.73;;
8230;SDS011;4156;50.908;6.974;2022-12-29T08:50:44;3.00;;;1.60;;
8230;SDS011;4156;50.908;6.974;2022-12-29T08:53:11;3.27;;;1.47;;
8230;SDS011;4156;50.908;6.974;2022-12-29T08:55:36;2.97;;;1.40;;
8230;SDS011;4156;50.908;6.974;2022-12-29T08:58:02;3.13;;;1.13;;
8230;SDS011;4156;50.908;6.974;2022-12-29T09:00:28;1.63;;;1.10;;
8230;SDS011;4156;50.908;6.974;2022-12-29T09:02:54;1.23;;;0.97;;
8230;SDS011;4156;50.908;6.974;2022-12-29T09:05:19;3.63;;;1.30;;
8230;SDS011;4156;50.908;6.974;2022-12-29T09:07:45;2.57;;;1.27;;
8230;SDS011;4156;50.908;6.974;2022-12-29T09:10:11;1.70;;;1.13;;
8230;SDS011;4156;50.908;6.974;2022-12-29T09:12:36;2.13;;;1.23;;
8230;SDS011;4156;50.908;6.974;2022-12-29T09:15:02;3.27;;;1.50;;
8230;SDS011;4156;50.908;6.974;2022-12-29T09:17:28;3.77;;;1.30;;
8230;SDS011;4156;50.908;6.974;2022-12-29T09:20:07;2.90;;;1.30;;
8230;SDS011;4156;50.908;6.974;2022-12-29T09:22:33;2.50;;;1.60;;
8230;SDS011;4156;50.908;6.974;2022-12-29T09:24:59;3.83;;;1.17;;
8230;SDS011;4156;50.908;6.974;2022-12-29T09:27:25;3.00;;;1.40;;
8230;SDS011;4156;50.908;6.974;2022-12-29T09:29:50;3.60;;;1.50;;
8230;SDS011;4156;50.908;6.974;2022-12-29T09:32:16;3.30;;;1.47;;
8230;SDS011;4156;50.908;6.974;2022-12-29T09:34:41;3.77;;;1.67;;
8230;SDS011;4156;50.908;6.974;2022-12-29T09:37:07;3.20;;;1.53;;
8230;SDS011;4156;50.908;6.974;2022-12-29T09:39:32;3.53;;;1.70;;
8230;SDS011;4156;50.908;6.974;2022-12-29T09:42:08;3.80;;;1.40;;
8230;SDS011;4156;50.908;6.974;2022-12-29T09:45:23;6.93;;;2.13;;
8230;SDS011;4156;50.908;6.974;2022-12-29T09:47:54;3.77;;;1.47;;
8230;SDS011;4156;50.908;6.974;2022-12-29T09:50:23;3.40;;;1.37;;
8230;SDS011;4156;50.908;6.974;2022-12-29T09:55:30;3.13;;;1.40;;
8230;SDS011;4156;50.908;6.974;2022-12-29T09:58:04;3.70;;;1.40;;
8230;SDS011;4156;50.908;6.974;2022-12-29T10:00:48;3.93;;;1.30;;
8230;SDS011;4156;50.908;6.974;2022-12-29T10:03:18;3.07;;;1.50;;
8230;SDS011;4156;50.908;6.974;2022-12-29T10:11:57;2.30;;;1.10;;
8230;SDS011;4156;50.908;6.974;2022-12-29T10:14:35;4.33;;;1.63;;
8230;SDS011;4156;50.908;6.974;2022-12-29T10:23:44;1.97;;;1.47;;
8230;SDS011;4156;50.908;6.974;2022-12-29T10:26:17;5.03;;;1.60;;
8230;SDS011;4156;50.908;6.974;2022-12-29T10:28:50;2.67;;;1.50;;
8230;SDS011;4156;50.908;6.974;2022-12-29T10:31:22;5.63;;;1.53;;
8230;SDS011;4156;50.908;6.974;2022-12-29T10:33:51;2.63;;;1.50;;
8230;SDS011;4156;50.908;6.974;2022-12-29T10:36:30;5.87;;;1.73;;
8230;SDS011;4156;50.908;6.974;2022-12-29T10:39:14;2.20;;;1.30;;
8230;SDS011;4156;50.908;6.974;2022-12-29T10:44:44;3.80;;;1.20;;
8230;SDS011;4156;50.908;6.974;2022-12-29T10:47:20;1.63;;;1.10;;
8230;SDS011;4156;50.908;6.974;2022-12-29T10:49:51;4.87;;;1.60;;
8230;SDS011;4156;50.908;6.974;2022-12-29T10:52:18;5.53;;;1.37;;
8230;SDS011;4156;50.908;6.974;2022-12-29T10:54:47;2.77;;;1.40;;
8230;SDS011;4156;50.908;6.974;2022-12-29T10:59:51;3.03;;;1.50;;
8230;SDS011;4156;50.908;6.974;2022-12-29T11:02:26;4.33;;;1.53;;
8230;SDS011;4156;50.908;6.974;2022-12-29T11:05:12;4.97;;;1.70;;
8230;SDS011;4156;50.908;6.974;2022-12-29T11:07:53;2.67;;;1.20;;
8230;SDS011;4156;50.908;6.974;2022-12-29T11:12:59;1.40;;;1.10;;
8230;SDS011;4156;50.908;6.974;2022-12-29T11:15:26;2.70;;;1.40;;
8230;SDS011;4156;50.908;6.974;2022-12-29T11:18:01;3.40;;;1.20;;
8230;SDS011;4156;50.908;6.974;2022-12-29T11:20:27;5.10;;;1.47;;
8230;SDS011;4156;50.908;6.974;2022-12-29T11:22:56;6.60;;;2.00;;
8230;SDS011;4156;50.908;6.974;2022-12-29T11:25:22;3.30;;;1.60;;
8230;SDS011;4156;50.908;6.974;2022-12-29T11:27:54;4.27;;;1.53;;
8230;SDS011;4156;50.908;6.974;2022-12-29T11:30:26;4.23;;;1.50;;
8230;SDS011;4156;50.908;6.974;2022-12-29T11:32:54;4.63;;;1.77;;
8230;SDS011;4156;50.908;6.974;2022-12-29T11:35:34;7.60;;;1.70;;
8230;SDS011;4156;50.908;6.974;2022-12-29T11:38:03;5.13;;;1.80;;
8230;SDS011;4156;50.908;6.974;2022-12-29T11:40:29;3.13;;;1.50;;
8230;SDS011;4156;50.908;6.974;2022-12-29T11:42:56;4.13;;;1.60;;
8230;SDS011;4156;50.908;6.974;2022-12-29T11:45:28;4.10;;;1.60;;
8230;SDS011;4156;50.908;6.974;2022-12-29T11:47:58;4.70;;;1.80;;
8230;SDS011;4156;50.908;6.974;2022-12-29T11:50:31;2.90;;;1.70;;
8230;SDS011;4156;50.908;6.974;2022-12-29T11:53:00;4.30;;;1.50;;
8230;SDS011;4156;50.908;6.974;2022-12-29T11:55:28;2.67;;;1.47;;
8230;SDS011;4156;50.908;6.974;2022-12-29T11:57:55;2.73;;;1.37;;
8230;SDS011;4156;50.908;6.974;2022-12-29T12:00:23;1.70;;;1.00;;
8230;SDS011;4156;50.908;6.974;2022-12-29T12:02:58;2.83;;;1.53;;
8230;SDS011;4156;50.908;6.974;2022-12-29T12:05:52;6.47;;;2.30;;
8230;SDS011;4156;50.908;6.974;2022-12-29T12:13:58;6.03;;;1.50;;
8230;SDS011;4156;50.908;6.974;2022-12-29T12:16:27;3.63;;;2.10;;
8230;SDS011;4156;50.908;6.974;2022-12-29T12:19:14;3.27;;;1.30;;
8230;SDS011;4156;50.908;6.974;2022-12-29T12:21:45;5.80;;;1.53;;
8230;SDS011;4156;50.908;6.974;2022-12-29T12:24:20;5.17;;;1.60;;
8230;SDS011;4156;50.908;6.974;2022-12-29T12:27:15;3.30;;;1.30;;
8230;SDS011;4156;50.908;6.974;2022-12-29T12:29:56;3.03;;;1.37;;
8230;SDS011;4156;50.908;6.974;2022-12-29T12:32:41;2.83;;;1.60;;
8230;SDS011;4156;50.908;6.974;2022-12-29T12:35:13;2.90;;;1.50;;
8230;SDS011;4156;50.908;6.974;2022-12-29T12:40:32;3.60;;;1.40;;
8230;SDS011;4156;50.908;6.974;2022-12-29T12:43:17;2.43;;;1.50;;
8230;SDS011;4156;50.908;6.974;2022-12-29T12:45:52;4.23;;;1.40;;
8230;SDS011;4156;50.908;6.974;2022-12-29T12:48:38;3.73;;;1.40;;
8230;SDS011;4156;50.908;6.974;2022-12-29T12:51:28;3.73;;;1.40;;
8230;SDS011;4156;50.908;6.974;2022-12-29T12:57:25;3.13;;;1.50;;
8230;SDS011;4156;50.908;6.974;2022-12-29T13:10:50;5.43;;;1.83;;
8230;SDS011;4156;50.908;6.974;2022-12-29T13:13:35;5.80;;;1.77;;
8230;SDS011;4156;50.908;6.974;2022-12-29T13:19:10;2.50;;;1.47;;
8230;SDS011;4156;50.908;6.974;2022-12-29T13:24:51;2.63;;;1.40;;
8230;SDS011;4156;50.908;6.974;2022-12-29T13:27:48;4.63;;;1.50;;
8230;SDS011;4156;50.908;6.974;2022-12-29T13:30:40;3.17;;;1.60;;
8230;SDS011;4156;50.908;6.974;2022-12-29T13:33:19;4.00;;;1.77;;
8230;SDS011;4156;50.908;6.974;2022-12-29T13:35:59;4.20;;;1.40;;
8230;SDS011;4156;50.908;6.974;2022-12-29T13:38:36;5.07;;;1.57;;
8230;SDS011;4156;50.908;6.974;2022-12-29T13:41:31;5.87;;;1.50;;
8230;SDS011;4156;50.908;6.974;2022-12-29T13:44:02;5.17;;;2.33;;
8230;SDS011;4156;50.908;6.974;2022-12-29T13:46:42;4.57;;;1.50;;
8230;SDS011;4156;50.908;6.974;2022-12-29T13:51:47;3.23;;;1.53;;
8230;SDS011;4156;50.908;6.974;2022-12-29T14:00:14;3.47;;;1.47;;
8230;SDS011;4156;50.908;6.974;2022-12-29T14:05:26;4.60;;;1.83;;
8230;SDS011;4156;50.908;6.974;2022-12-29T14:07:57;1.97;;;1.20;;
8230;SDS011;4156;50.908;6.974;2022-12-29T14:10:30;3.83;;;1.57;;
8230;SDS011;4156;50.908;6.974;2022-12-29T14:13:11;3.17;;;1.40;;
8230;SDS011;4156;50.908;6.974;2022-12-29T14:15:43;3.23;;;2.00;;
8230;SDS011;4156;50.908;6.974;2022-12-29T14:18:16;2.70;;;1.23;;
8230;SDS011;4156;50.908;6.974;2022-12-29T14:20:55;2.43;;;1.37;;
8230;SDS011;4156;50.908;6.974;2022-12-29T14:23:34;1.93;;;1.40;;
8230;SDS011;4156;50.908;6.974;2022-12-29T14:44:45;4.00;;;1.60;;
8230;SDS011;4156;50.908;6.974;2022-12-29T14:47:20;2.47;;;1.60;;
8230;SDS011;4156;50.908;6.974;2022-12-29T14:49:55;3.83;;;1.50;;
8230;SDS011;4156;50.908;6.974;2022-12-29T14:52:23;4.53;;;1.70;;
8230;SDS011;4156;50.908;6.974;2022-12-29T14:57:26;4.80;;;1.60;;
8230;SDS011;4156;50.908;6.974;2022-12-29T14:59:57;3.77;;;1.80;;
8230;SDS011;4156;50.908;6.974;2022-12-29T15:02:26;3.23;;;1.40;;
8230;SDS011;4156;50.908;6.974;2022-12-29T15:04:59;5.23;;;1.80;;
8230;SDS011;4156;50.908;6.974;2022-12-29T15:07:26;6.67;;;1.67;;
8230;SDS011;4156;50.908;6.974;2022-12-29T15:09:54;3.47;;;1.80;;
8230;SDS011;4156;50.908;6.974;2022-12-29T15:15:26;4.13;;;1.80;;
8230;SDS011;4156;50.908;6.974;2022-12-29T15:17:54;4.70;;;1.90;;
8230;SDS011;4156;50.908;6.974;2022-12-29T15:20:24;4.57;;;1.90;;
8230;SDS011;4156;50.908;6.974;2022-12-29T15:23:00;2.43;;;1.37;;
8230;SDS011;4156;50.908;6.974;2022-12-29T15:25:28;4.20;;;1.60;;
8230;SDS011;4156;50.908;6.974;2022-12-29T15:27:57;5.03;;;1.57;;
8230;SDS011;4156;50.908;6.974;2022-12-29T15:30:26;5.63;;;2.10;;
8230;SDS011;4156;50.908;6.974;2022-12-29T15:32:52;2.93;;;1.73;;
8230;SDS011;4156;50.908;6.974;2022-12-29T15:38:00;3.70;;;1.67;;
8230;SDS011;4156;50.908;6.974;2022-12-29T15:40:37;3.77;;;1.80;;
8230;SDS011;4156;50.908;6.974;2022-12-29T15:43:07;4.83;;;1.80;;
8230;SDS011;4156;50.908;6.974;2022-12-29T15:45:49;4.97;;;1.80;;
8230;SDS011;4156;50.908;6.974;2022-12-29T15:48:20;4.70;;;1.83;;
8230;SDS011;4156;50.908;6.974;2022-12-29T15:50:48;4.27;;;1.70;;
8230;SDS011;4156;50.908;6.974;2022-12-29T15:53:32;2.70;;;1.67;;
8230;SDS011;4156;50.908;6.974;2022-12-29T15:55:59;5.00;;;1.60;;
8230;SDS011;4156;50.908;6.974;2022-12-29T15:58:28;4.53;;;1.77;;
8230;SDS011;4156;50.908;6.974;2022-12-29T16:00:56;2.57;;;1.67;;
8230;SDS011;4156;50.908;6.974;2022-12-29T16:03:24;6.07;;;1.70;;
8230;SDS011;4156;50.908;6.974;2022-12-29T16:05:56;6.60;;;1.97;;
8230;SDS011;4156;50.908;6.974;2022-12-29T16:08:39;5.30;;;1.90;;
8230;SDS011;4156;50.908;6.974;2022-12-29T16:11:26;7.43;;;2.20;;
8230;SDS011;4156;50.908;6.974;2022-12-29T16:13:57;5.00;;;1.80;;
8230;SDS011;4156;50.908;6.974;2022-12-29T16:19:01;3.20;;;1.63;;
8230;SDS011;4156;50.908;6.974;2022-12-29T16:21:33;5.83;;;2.23;;
8230;SDS011;4156;50.908;6.974;2022-12-29T16:24:12;5.63;;;1.70;;
8230;SDS011;4156;50.908;6.974;2022-12-29T16:26:45;4.20;;;1.80;;
8230;SDS011;4156;50.908;6.974;2022-12-29T16:29:31;4.70;;;1.67;;
8230;SDS011;4156;50.908;6.974;2022-12-29T16:31:58;5.20;;;1.67;;
8230;SDS011;4156;50.908;6.974;2022-12-29T16:37:05;4.40;;;1.70;;
8230;SDS011;4156;50.908;6.974;2022-12-29T16:42:45;5.70;;;2.23;;
8230;SDS011;4156;50.908;6.974;2022-12-29T16:50:30;2.77;;;1.67;;
8230;SDS011;4156;50.908;6.974;2022-12-29T16:52:55;4.07;;;1.77;;
8230;SDS011;4156;50.908;6.974;2022-12-29T16:55:21;4.90;;;1.60;;
8230;SDS011;4156;50.908;6.974;2022-12-29T16:57:47;6.57;;;2.27;;
8230;SDS011;4156;50.908;6.974;2022-12-29T17:00:22;4.40;;;1.83;;
8230;SDS011;4156;50.908;6.974;2022-12-29T17:02:50;4.80;;;1.73;;
8230;SDS011;4156;50.908;6.974;2022-12-29T17:05:27;3.13;;;1.50;;
8230;SDS011;4156;50.908;6.974;2022-12-29T17:07:52;5.70;;;1.80;;
8230;SDS011;4156;50.908;6.974;2022-12-29T17:10:18;4.63;;;2.00;;
8230;SDS011;4156;50.908;6.974;2022-12-29T17:12:44;4.53;;;1.63;;
8230;SDS011;4156;50.908;6.974;2022-12-29T17:15:32;3.80;;;1.60;;
8230;SDS011;4156;50.908;6.974;2022-12-29T17:17:59;5.43;;;1.97;;
8230;SDS011;4156;50.908;6.974;2022-12-29T17:20:26;4.13;;;1.87;;
8230;SDS011;4156;50.908;6.974;2022-12-29T17:22:53;4.83;;;2.00;;
8230;SDS011;4156;50.908;6.974;2022-12-29T17:25:20;4.50;;;2.00;;
8230;SDS011;4156;50.908;6.974;2022-12-29T17:30:17;4.70;;;1.77;;
8230;SDS011;4156;50.908;6.974;2022-12-29T17:33:06;4.67;;;1.80;;
8230;SDS011;4156;50.908;6.974;2022-12-29T17:35:36;6.20;;;1.90;;
8230;SDS011;4156;50.908;6.974;2022-12-29T17:38:02;6.00;;;1.70;;
8230;SDS011;4156;50.908;6.974;2022-12-29T17:40:28;6.93;;;2.43;;
8230;SDS011;4156;50.908;6.974;2022-12-29T17:42:56;5.83;;;2.57;;
8230;SDS011;4156;50.908;6.974;2022-12-29T17:45:23;4.67;;;2.40;;
8230;SDS011;4156;50.908;6.974;2022-12-29T17:47:51;5.43;;;2.07;;